KMFI/MFI METAR and TAF weather

Enter ICAO airport designator
Station Type Date Time Source
KMFI METAR 2019/08/25 14:54 UTC NOAA

KMFI 251454Z AUTO 14008KT 10SM BKN043 19/14 A3014 RMK AO2 SLP204 T01890144 57007


Station Type Date Time Source
KMFI Decoded METAR 2019/08/25 14:54 UTC NOAA

Station name not available
Aug 25, 2019 - 10:54 AM EDT / 2019.08.25 1454 UTC
Wind: from the SE (140 degrees) at 9 MPH (8 KT):0
Visibility: 10 mile(s):0
Sky conditions: mostly cloudy
Temperature: 66.0 F (18.9 C)
Dew Point: 57.9 F (14.4 C)
Relative Humidity: 75%
Pressure (altimeter): 30.14 in. Hg (1020 hPa)
Pressure tendency: 0.02 inches (0.7 hPa) lower than three hours ago
ob: KMFI 251454Z AUTO 14008KT 10SM BKN043 19/14 A3014 RMK AO2 SLP204 T01890144 57007
cycle: 15

Station Type Date Time Source
KMFI TAF UTC NOAA

Error!

Example: see airport list